Time;durP1;ratioP1;P1;durP2;ratioP2;P2;SDS_P1;SDS_P2;PMS_P1;PMS_P2;Temp;Humidity;BMP_temperature;BMP_pressure;BME280_temperature;BME280_humidity;BME280_pressure;Samples;Min_cycle;Max_cycle;Signal;HPM_P1;HPM_P2
2022/10/09 00:01:13;;;;;;;8.23;3.88;;;;;;;;;;4898895;29;20226;-87
2022/10/09 00:03:40;;;;;;;13.40;4.00;;;;;;;;;;4899816;29;20119;-87
2022/10/09 00:06:08;;;;;;;7.85;3.70;;;;;;;;;;4898379;29;20037;-86
2022/10/09 00:08:35;;;;;;;7.90;3.50;;;;;;;;;;4899604;29;20099;-87
2022/10/09 00:11:07;;;;;;;5.70;3.72;;;;;;;;;;4898616;29;20109;-86
2022/10/09 00:13:33;;;;;;;10.10;4.10;;;;;;;;;;4899460;29;20445;-86
2022/10/09 00:16:02;;;;;;;8.27;3.97;;;;;;;;;;4899585;29;20037;-86
2022/10/09 00:18:28;;;;;;;9.52;4.15;;;;;;;;;;4899928;29;20127;-87
2022/10/09 00:20:53;;;;;;;6.35;3.67;;;;;;;;;;4899701;29;20075;-87
2022/10/09 00:23:19;;;;;;;8.65;3.97;;;;;;;;;;4898413;29;20132;-87
2022/10/09 00:25:59;;;;;;;10.32;3.85;;;;;;;;;;4899367;29;20040;-86
2022/10/09 00:28:28;;;;;;;6.43;3.90;;;;;;;;;;4898513;29;20041;-86
2022/10/09 00:30:54;;;;;;;7.72;4.32;;;;;;;;;;4898353;29;20064;-86
2022/10/09 00:33:20;;;;;;;9.25;3.83;;;;;;;;;;4899609;29;20124;-86
2022/10/09 00:35:46;;;;;;;6.93;3.63;;;;;;;;;;4898107;29;20047;-87
2022/10/09 00:38:12;;;;;;;11.30;3.80;;;;;;;;;;4899630;29;20037;-87
2022/10/09 00:40:38;;;;;;;7.03;3.85;;;;;;;;;;4899075;29;20072;-87
2022/10/09 00:43:17;;;;;;;5.55;3.20;;;;;;;;;;4912964;29;20032;-87
2022/10/09 00:45:54;;;;;;;8.02;3.60;;;;;;;;;;4898407;29;20088;-87
2022/10/09 00:48:20;;;;;;;9.02;3.90;;;;;;;;;;4914249;29;20098;-87
2022/10/09 00:50:54;;;;;;;5.88;3.30;;;;;;;;;;4899495;29;20033;-88
2022/10/09 00:53:22;;;;;;;6.47;3.47;;;;;;;;;;4899181;29;20100;-87
2022/10/09 00:55:48;;;;;;;8.18;3.60;;;;;;;;;;4902378;29;20555;-87
2022/10/09 00:58:14;;;;;;;10.73;4.30;;;;;;;;;;4901682;29;20104;-86
2022/10/09 01:00:40;;;;;;;6.90;3.25;;;;;;;;;;4917412;29;20040;-86
2022/10/09 01:03:06;;;;;;;7.10;3.58;;;;;;;;;;4902749;29;20036;-87
2022/10/09 01:05:53;;;;;;;7.72;3.47;;;;;;;;;;4902400;29;20509;-86
2022/10/09 01:08:21;;;;;;;7.05;3.60;;;;;;;;;;4902692;29;20036;-86
2022/10/09 01:11:08;;;;;;;6.90;3.50;;;;;;;;;;4907214;29;20064;-86
2022/10/09 01:13:59;;;;;;;5.65;3.55;;;;;;;;;;4902259;29;20032;-86
2022/10/09 01:16:28;;;;;;;6.95;3.35;;;;;;;;;;4904607;29;20029;-87
2022/10/09 01:19:22;;;;;;;6.97;3.17;;;;;;;;;;4902569;29;20131;-86
2022/10/09 01:22:10;;;;;;;;;;;;;;;;;;4903022;29;20078;-86
2022/10/09 01:24:38;;;;;;;8.02;3.80;;;;;;;;;;4904571;29;20021;-87
2022/10/09 01:27:10;;;;;;;8.52;3.90;;;;;;;;;;4901202;29;20091;-86
2022/10/09 01:29:45;;;;;;;7.10;3.95;;;;;;;;;;4902354;29;20116;-87
2022/10/09 01:32:14;;;;;;;8.02;4.15;;;;;;;;;;4901641;29;20555;-86
2022/10/09 01:34:41;;;;;;;4.55;2.90;;;;;;;;;;4901779;29;20044;-86
2022/10/09 01:37:09;;;;;;;6.45;3.33;;;;;;;;;;4901196;29;20039;-87
2022/10/09 01:39:36;;;;;;;5.10;3.42;;;;;;;;;;4902512;29;20047;-86
2022/10/09 01:42:01;;;;;;;10.20;3.90;;;;;;;;;;4885454;29;20081;-87
2022/10/09 01:44:29;;;;;;;7.78;3.60;;;;;;;;;;4901590;29;20103;-86
2022/10/09 01:46:56;;;;;;;7.70;3.40;;;;;;;;;;4902248;29;20041;-86
2022/10/09 01:50:06;;;;;;;6.85;3.80;;;;;;;;;;4901687;29;20044;-86
2022/10/09 01:52:46;;;;;;;4.63;3.03;;;;;;;;;;4825727;29;20042;-86
2022/10/09 01:55:39;;;;;;;6.43;3.50;;;;;;;;;;4825109;29;20061;-87
2022/10/09 01:58:17;;;;;;;7.38;3.70;;;;;;;;;;4896570;29;20048;-86
2022/10/09 02:00:59;;;;;;;9.20;3.70;;;;;;;;;;4901870;29;20033;-87
2022/10/09 02:03:27;;;;;;;7.65;3.80;;;;;;;;;;4901594;29;20482;-86
2022/10/09 02:05:54;;;;;;;9.65;3.63;;;;;;;;;;4900533;29;20032;-86
2022/10/09 02:08:22;;;;;;;8.50;3.80;;;;;;;;;;4901833;29;20068;-86
2022/10/09 02:10:52;;;;;;;7.35;3.63;;;;;;;;;;4901294;29;20040;-87
2022/10/09 02:13:19;;;;;;;7.32;3.60;;;;;;;;;;4900648;29;20482;-85
2022/10/09 02:15:50;;;;;;;6.15;3.88;;;;;;;;;;4900912;29;20045;-86
2022/10/09 02:18:24;;;;;;;5.28;3.60;;;;;;;;;;4901936;29;20413;-87
2022/10/09 02:20:55;;;;;;;7.18;3.80;;;;;;;;;;4900969;29;20084;-86
2022/10/09 02:23:22;;;;;;;8.75;4.15;;;;;;;;;;4901679;29;20039;-86
2022/10/09 02:25:49;;;;;;;9.18;4.40;;;;;;;;;;4900813;29;20097;-87
2022/10/09 02:28:15;;;;;;;9.55;5.65;;;;;;;;;;4901254;29;20043;-86
2022/10/09 02:30:50;;;;;;;11.50;6.30;;;;;;;;;;4901077;29;20032;-86
2022/10/09 02:33:16;;;;;;;11.52;6.72;;;;;;;;;;4901233;29;20040;-86
2022/10/09 02:35:42;;;;;;;13.13;6.60;;;;;;;;;;4900149;29;20123;-86
2022/10/09 02:38:07;;;;;;;11.82;7.22;;;;;;;;;;4900993;29;20032;-86
2022/10/09 02:40:33;;;;;;;15.55;7.15;;;;;;;;;;4900612;29;20391;-87
2022/10/09 02:42:58;;;;;;;10.88;6.78;;;;;;;;;;4900562;29;20036;-86
2022/10/09 02:45:23;;;;;;;16.60;8.05;;;;;;;;;;4883663;29;20045;-86
2022/10/09 02:47:49;;;;;;;13.82;7.90;;;;;;;;;;4900244;29;20060;-86
2022/10/09 02:50:14;;;;;;;14.85;8.23;;;;;;;;;;4900690;29;20040;-86
2022/10/09 02:52:40;;;;;;;13.60;8.35;;;;;;;;;;4900419;29;20062;-86
2022/10/09 02:55:06;;;;;;;12.60;7.35;;;;;;;;;;4899937;29;20486;-86
2022/10/09 02:57:31;;;;;;;21.05;8.18;;;;;;;;;;4899125;29;20163;-86
2022/10/09 02:59:56;;;;;;;14.32;8.25;;;;;;;;;;4900257;29;20036;-86
2022/10/09 03:02:22;;;;;;;15.57;8.45;;;;;;;;;;4914743;29;20043;-86
2022/10/09 03:04:47;;;;;;;12.45;7.80;;;;;;;;;;4914768;29;20036;-86
2022/10/09 03:07:13;;;;;;;16.10;7.68;;;;;;;;;;4915143;29;20048;-86
2022/10/09 03:09:38;;;;;;;11.23;7.13;;;;;;;;;;4900316;29;20045;-86
2022/10/09 03:12:04;;;;;;;13.43;7.55;;;;;;;;;;4899710;29;20040;-86
2022/10/09 03:14:29;;;;;;;11.30;6.43;;;;;;;;;;4899843;29;20482;-86
2022/10/09 03:16:56;;;;;;;11.52;7.25;;;;;;;;;;4914632;29;20040;-86
2022/10/09 03:19:21;;;;;;;12.43;7.13;;;;;;;;;;4900163;29;20040;-86
2022/10/09 03:21:47;;;;;;;11.85;7.47;;;;;;;;;;4899770;29;20108;-86
2022/10/09 03:24:12;;;;;;;11.07;6.68;;;;;;;;;;4899800;29;20176;-86
2022/10/09 03:26:38;;;;;;;13.13;7.78;;;;;;;;;;4898726;29;20037;-87
2022/10/09 03:29:03;;;;;;;11.55;6.65;;;;;;;;;;4899820;29;20048;-86
2022/10/09 03:31:29;;;;;;;9.48;5.90;;;;;;;;;;4900249;29;20036;-86
2022/10/09 03:33:54;;;;;;;11.75;6.82;;;;;;;;;;4898418;29;20123;-86
2022/10/09 03:36:19;;;;;;;14.13;6.43;;;;;;;;;;4899380;29;20033;-86
2022/10/09 03:38:45;;;;;;;10.20;6.60;;;;;;;;;;4899295;29;20036;-87
2022/10/09 03:41:10;;;;;;;10.48;6.60;;;;;;;;;;4898468;29;20037;-86
2022/10/09 03:43:36;;;;;;;10.68;6.20;;;;;;;;;;4900308;29;20040;-86
2022/10/09 03:46:06;;;;;;;9.55;6.70;;;;;;;;;;4898987;29;20067;-86
2022/10/09 03:48:31;;;;;;;13.27;7.20;;;;;;;;;;4899982;29;20070;-86
2022/10/09 03:50:57;;;;;;;10.35;6.70;;;;;;;;;;4899493;29;20076;-86
2022/10/09 03:53:22;;;;;;;10.38;6.93;;;;;;;;;;4898291;29;20045;-86
2022/10/09 03:55:48;;;;;;;10.07;6.82;;;;;;;;;;4897984;29;20132;-86
2022/10/09 03:58:13;;;;;;;12.15;6.95;;;;;;;;;;4899211;29;20206;-86
2022/10/09 04:00:39;;;;;;;11.65;6.22;;;;;;;;;;4898308;29;20043;-86
2022/10/09 04:03:04;;;;;;;9.32;6.40;;;;;;;;;;4899270;29;20379;-86
2022/10/09 04:05:34;;;;;;;9.30;6.90;;;;;;;;;;4897721;29;20048;-86
2022/10/09 04:07:59;;;;;;;11.02;6.60;;;;;;;;;;4897594;29;20081;-86
2022/10/09 04:10:25;;;;;;;10.35;6.18;;;;;;;;;;4899869;29;20122;-86
2022/10/09 04:12:50;;;;;;;11.95;6.90;;;;;;;;;;4899110;29;20100;-86
2022/10/09 04:15:15;;;;;;;10.25;7.50;;;;;;;;;;4898968;29;20036;-86
2022/10/09 04:17:41;;;;;;;10.70;6.82;;;;;;;;;;4899079;29;20052;-86
2022/10/09 04:20:07;;;;;;;13.85;7.15;;;;;;;;;;4899316;29;20028;-87
2022/10/09 04:22:33;;;;;;;10.45;6.18;;;;;;;;;;4899357;29;20042;-86
2022/10/09 04:24:58;;;;;;;13.98;6.20;;;;;;;;;;4899037;29;20089;-86
2022/10/09 04:27:24;;;;;;;11.73;6.40;;;;;;;;;;4898992;29;20037;-86
2022/10/09 04:29:49;;;;;;;9.95;6.13;;;;;;;;;;4903253;29;20032;-86
2022/10/09 04:32:15;;;;;;;9.85;6.93;;;;;;;;;;4902776;29;20043;-86
2022/10/09 04:34:40;;;;;;;12.10;7.35;;;;;;;;;;4903129;29;20169;-86
2022/10/09 04:37:05;;;;;;;13.80;7.53;;;;;;;;;;4903259;29;20413;-86
2022/10/09 04:39:31;;;;;;;9.20;6.55;;;;;;;;;;4903145;29;20059;-86
2022/10/09 04:41:56;;;;;;;16.00;8.55;;;;;;;;;;4903219;29;20139;-86
2022/10/09 04:44:22;;;;;;;12.82;7.63;;;;;;;;;;4902169;29;20041;-86
2022/10/09 04:46:50;;;;;;;14.38;8.40;;;;;;;;;;4902596;29;20069;-86
2022/10/09 04:49:15;;;;;;;13.50;7.90;;;;;;;;;;4901378;29;20033;-86
2022/10/09 04:51:42;;;;;;;12.82;7.60;;;;;;;;;;4902720;29;20413;-86
2022/10/09 04:54:08;;;;;;;15.85;8.38;;;;;;;;;;4901854;29;20037;-86
2022/10/09 04:56:33;;;;;;;13.40;8.13;;;;;;;;;;4902460;29;20096;-86
2022/10/09 04:58:59;;;;;;;12.20;7.70;;;;;;;;;;4902628;29;20032;-86
2022/10/09 05:01:26;;;;;;;16.55;8.13;;;;;;;;;;4902128;29;20095;-86
2022/10/09 05:03:53;;;;;;;14.00;8.02;;;;;;;;;;4901922;29;20115;-86
2022/10/09 05:06:20;;;;;;;11.90;7.35;;;;;;;;;;4901828;29;20107;-86
2022/10/09 05:08:46;;;;;;;13.98;8.65;;;;;;;;;;4901098;29;20047;-86
2022/10/09 05:11:15;;;;;;;19.73;10.15;;;;;;;;;;4902055;29;20043;-86
2022/10/09 05:13:44;;;;;;;28.35;14.63;;;;;;;;;;4900018;29;20043;-86
2022/10/09 05:16:13;;;;;;;14.95;8.45;;;;;;;;;;4901581;29;20036;-87
2022/10/09 05:18:44;;;;;;;14.13;8.20;;;;;;;;;;4901719;29;20469;-86
2022/10/09 05:21:10;;;;;;;18.95;10.30;;;;;;;;;;4901739;29;20040;-86
2022/10/09 05:23:35;;;;;;;26.63;12.05;;;;;;;;;;4901738;29;20048;-86
2022/10/09 05:26:04;;;;;;;25.05;11.70;;;;;;;;;;4901696;29;20096;-86
2022/10/09 05:28:30;;;;;;;19.20;10.45;;;;;;;;;;4902062;29;20037;-86
2022/10/09 05:30:55;;;;;;;16.02;9.15;;;;;;;;;;4901507;29;20512;-86
2022/10/09 05:33:21;;;;;;;13.48;6.95;;;;;;;;;;4916012;29;20032;-86
2022/10/09 05:35:55;;;;;;;11.02;6.75;;;;;;;;;;4901274;29;20409;-86
2022/10/09 05:38:21;;;;;;;11.52;5.95;;;;;;;;;;4900293;29;20044;-86
2022/10/09 05:41:06;;;;;;;10.18;5.90;;;;;;;;;;4900019;29;20032;-87
2022/10/09 05:43:35;;;;;;;10.35;6.00;;;;;;;;;;4900050;29;20127;-86
2022/10/09 05:46:14;;;;;;;10.95;5.93;;;;;;;;;;4900729;29;20084;-86
2022/10/09 05:48:41;;;;;;;12.18;5.72;;;;;;;;;;4900339;29;20036;-86
2022/10/09 05:51:19;;;;;;;11.90;6.18;;;;;;;;;;4883897;29;20044;-86
2022/10/09 05:53:46;;;;;;;13.43;8.30;;;;;;;;;;4900726;29;20124;-86
2022/10/09 05:56:13;;;;;;;10.75;7.30;;;;;;;;;;4900680;29;20041;-86
2022/10/09 05:58:39;;;;;;;11.55;6.30;;;;;;;;;;4899243;29;20047;-86
2022/10/09 06:01:04;;;;;;;15.05;7.47;;;;;;;;;;4900577;29;20474;-86
2022/10/09 06:03:30;;;;;;;17.75;7.88;;;;;;;;;;4900654;29;20040;-85
2022/10/09 06:06:00;;;;;;;12.02;7.28;;;;;;;;;;4900647;29;20120;-86
2022/10/09 06:08:26;;;;;;;17.20;7.70;;;;;;;;;;4900793;29;20077;-85
2022/10/09 06:10:52;;;;;;;13.40;7.55;;;;;;;;;;4900628;29;20044;-86
2022/10/09 06:13:17;;;;;;;15.57;7.43;;;;;;;;;;4900539;29;20068;-85
2022/10/09 06:15:53;;;;;;;16.35;8.57;;;;;;;;;;4899076;29;20040;-85
2022/10/09 06:18:19;;;;;;;17.73;8.70;;;;;;;;;;4900454;29;20051;-86
2022/10/09 06:20:59;;;;;;;17.92;9.50;;;;;;;;;;4900492;29;20044;-86
2022/10/09 06:23:25;;;;;;;14.73;8.65;;;;;;;;;;4900950;29;20049;-86
2022/10/09 06:25:52;;;;;;;14.57;9.27;;;;;;;;;;4900646;29;20044;-86
2022/10/09 06:28:18;;;;;;;17.75;9.95;;;;;;;;;;4900213;29;20032;-85
2022/10/09 06:30:44;;;;;;;14.10;8.18;;;;;;;;;;4883647;29;20159;-86
2022/10/09 06:33:09;;;;;;;11.10;7.00;;;;;;;;;;4900855;29;20044;-86
2022/10/09 06:35:35;;;;;;;10.18;6.25;;;;;;;;;;4900139;29;20032;-85
2022/10/09 06:38:00;;;;;;;15.32;6.90;;;;;;;;;;4900668;29;20092;-86
2022/10/09 06:40:26;;;;;;;14.75;7.72;;;;;;;;;;4898948;29;20036;-85
2022/10/09 06:42:51;;;;;;;9.93;6.65;;;;;;;;;;4914913;29;20071;-85
2022/10/09 06:45:17;;;;;;;9.73;6.97;;;;;;;;;;4899210;29;20032;-86
2022/10/09 06:47:42;;;;;;;11.77;6.43;;;;;;;;;;4900330;29;20557;-86
2022/10/09 06:50:08;;;;;;;11.20;6.85;;;;;;;;;;4901114;29;20029;-86
2022/10/09 06:52:33;;;;;;;13.95;6.75;;;;;;;;;;4898189;29;20454;-86
2022/10/09 06:54:59;;;;;;;12.27;7.20;;;;;;;;;;4900517;29;20024;-86
2022/10/09 06:57:24;;;;;;;13.73;8.02;;;;;;;;;;4900390;29;20046;-87
2022/10/09 06:59:50;;;;;;;14.93;9.50;;;;;;;;;;4901438;29;20036;-87
2022/10/09 07:02:16;;;;;;;19.08;9.60;;;;;;;;;;4884614;29;20032;-87
2022/10/09 07:04:42;;;;;;;12.25;7.85;;;;;;;;;;4900676;29;20088;-87
2022/10/09 07:07:07;;;;;;;12.55;7.68;;;;;;;;;;4900440;29;20092;-87
2022/10/09 07:09:33;;;;;;;11.55;6.97;;;;;;;;;;4900859;29;20039;-78
2022/10/09 07:11:58;;;;;;;13.60;6.43;;;;;;;;;;4900512;29;20406;-79
2022/10/09 07:14:24;;;;;;;11.70;6.70;;;;;;;;;;4898378;29;20044;-78
2022/10/09 07:16:50;;;;;;;14.80;6.20;;;;;;;;;;4903831;29;20037;-78
2022/10/09 07:19:17;;;;;;;13.20;6.90;;;;;;;;;;4902403;29;20040;-78
2022/10/09 07:21:44;;;;;;;12.93;7.28;;;;;;;;;;4904360;29;20064;-88
2022/10/09 07:24:11;;;;;;;13.77;8.13;;;;;;;;;;4902372;29;20375;-88
2022/10/09 07:26:40;;;;;;;11.40;7.45;;;;;;;;;;4902849;29;20040;-88
2022/10/09 07:29:07;;;;;;;12.75;7.90;;;;;;;;;;4901390;29;20115;-88
2022/10/09 07:31:32;;;;;;;15.82;8.18;;;;;;;;;;4902401;29;20119;-88
2022/10/09 07:33:58;;;;;;;13.50;8.45;;;;;;;;;;4901266;29;20064;-85
2022/10/09 07:36:24;;;;;;;17.88;8.68;;;;;;;;;;4899337;29;20148;-87
2022/10/09 07:38:52;;;;;;;16.33;8.57;;;;;;;;;;4901467;29;20032;-87
2022/10/09 07:41:19;;;;;;;18.85;8.93;;;;;;;;;;4902211;29;20486;-87
2022/10/09 07:43:44;;;;;;;15.07;8.90;;;;;;;;;;4901385;29;20647;-87
2022/10/09 07:46:13;;;;;;;11.98;8.60;;;;;;;;;;4900841;29;20108;-87
2022/10/09 07:48:39;;;;;;;12.55;8.43;;;;;;;;;;4901905;29;20048;-87
2022/10/09 07:51:16;;;;;;;14.35;8.40;;;;;;;;;;4902087;29;20036;-87
2022/10/09 07:53:42;;;;;;;13.77;8.80;;;;;;;;;;4902015;29;20065;-87
2022/10/09 07:56:14;;;;;;;12.52;8.48;;;;;;;;;;4901101;29;20410;-86
2022/10/09 07:58:40;;;;;;;12.40;7.97;;;;;;;;;;4902237;29;20050;-87
2022/10/09 08:01:06;;;;;;;14.77;7.90;;;;;;;;;;4902130;29;20092;-87
2022/10/09 08:03:32;;;;;;;12.27;7.63;;;;;;;;;;4902366;29;20033;-87
2022/10/09 08:05:58;;;;;;;12.45;7.28;;;;;;;;;;4901951;29;20029;-87
2022/10/09 08:08:23;;;;;;;11.57;7.38;;;;;;;;;;4901651;29;20047;-87
2022/10/09 08:10:49;;;;;;;11.05;7.85;;;;;;;;;;4901959;29;20040;-87
2022/10/09 08:13:14;;;;;;;10.95;8.10;;;;;;;;;;4902439;29;20044;-87
2022/10/09 08:15:41;;;;;;;11.38;7.45;;;;;;;;;;4901936;29;20092;-87
2022/10/09 08:18:08;;;;;;;11.80;7.78;;;;;;;;;;4902642;29;20036;-87
2022/10/09 08:20:34;;;;;;;12.85;7.57;;;;;;;;;;4903934;29;20112;-88
2022/10/09 08:22:59;;;;;;;9.75;7.47;;;;;;;;;;4902699;29;20465;-88
2022/10/09 08:25:25;;;;;;;13.88;7.63;;;;;;;;;;4903647;29;20036;-87
2022/10/09 08:27:54;;;;;;;16.08;9.50;;;;;;;;;;4903201;29;20073;-88
2022/10/09 08:30:20;;;;;;;17.95;9.98;;;;;;;;;;4904028;29;20043;-87
2022/10/09 08:32:46;;;;;;;15.80;9.23;;;;;;;;;;4902092;29;20413;-87
2022/10/09 08:35:11;;;;;;;13.48;7.78;;;;;;;;;;4901835;29;20414;-87
2022/10/09 08:37:37;;;;;;;10.73;7.40;;;;;;;;;;4902516;29;20100;-86
2022/10/09 08:40:04;;;;;;;11.43;7.45;;;;;;;;;;4900664;29;20037;-87
2022/10/09 08:42:42;;;;;;;12.75;7.93;;;;;;;;;;4900464;29;20036;-86
2022/10/09 08:45:18;;;;;;;10.60;6.80;;;;;;;;;;4900635;29;20488;-85
2022/10/09 08:47:58;;;;;;;12.80;7.45;;;;;;;;;;4900201;29;20033;-87
2022/10/09 08:50:31;;;;;;;10.32;7.00;;;;;;;;;;4900570;29;20382;-86
2022/10/09 08:53:06;;;;;;;13.30;8.52;;;;;;;;;;4900223;29;20068;-86
2022/10/09 08:55:38;;;;;;;13.50;7.70;;;;;;;;;;4899180;29;20048;-87
2022/10/09 08:58:05;;;;;;;11.82;8.02;;;;;;;;;;4900285;29;20032;-88
2022/10/09 09:00:43;;;;;;;13.75;7.75;;;;;;;;;;4901742;29;20033;-88
2022/10/09 09:03:33;;;;;;;9.25;7.13;;;;;;;;;;4902408;29;20413;-89
2022/10/09 09:06:13;;;;;;;11.48;7.85;;;;;;;;;;4899356;29;20045;-88
2022/10/09 09:08:48;;;;;;;12.77;8.50;;;;;;;;;;4901528;29;20100;-88
2022/10/09 09:11:24;;;;;;;11.52;8.02;;;;;;;;;;4901420;29;20044;-88
2022/10/09 09:14:06;;;;;;;12.27;7.90;;;;;;;;;;4902463;29;20040;-88
2022/10/09 09:16:41;;;;;;;11.02;7.32;;;;;;;;;;4905881;29;20088;-88
2022/10/09 09:19:25;;;;;;;13.27;6.78;;;;;;;;;;4905422;29;20052;-87
2022/10/09 09:21:52;;;;;;;11.55;7.20;;;;;;;;;;4920638;29;20041;-88
2022/10/09 09:24:20;;;;;;;14.85;7.53;;;;;;;;;;4905101;29;20100;-88
2022/10/09 09:26:52;;;;;;;9.45;7.25;;;;;;;;;;4906231;29;20065;-88
2022/10/09 09:29:22;;;;;;;14.45;7.47;;;;;;;;;;4903911;29;20040;-91
2022/10/09 09:31:51;;;;;;;12.15;7.63;;;;;;;;;;4902521;29;20051;-88
2022/10/09 09:34:36;;;;;;;12.00;7.32;;;;;;;;;;4901361;29;20033;-87
2022/10/09 09:37:02;;;;;;;10.88;7.55;;;;;;;;;;4902321;29;20048;-86
2022/10/09 09:39:32;;;;;;;16.55;7.05;;;;;;;;;;4916951;29;20044;-88
2022/10/09 09:42:06;;;;;;;13.00;8.40;;;;;;;;;;4900937;29;20036;-88
2022/10/09 09:44:33;;;;;;;;;;;;;;;;;;4903986;29;20123;-90
2022/10/09 09:46:59;;;;;;;31.67;19.58;;;;;;;;;;4900395;29;19911;-89
2022/10/09 09:49:27;;;;;;;28.38;17.35;;;;;;;;;;4901481;29;20088;-89
2022/10/09 09:51:55;;;;;;;23.10;15.25;;;;;;;;;;4900945;29;20041;-89
2022/10/09 09:54:26;;;;;;;14.25;7.10;;;;;;;;;;4900604;29;20486;-89
2022/10/09 09:56:55;;;;;;;9.90;7.30;;;;;;;;;;4901257;29;20040;-89
2022/10/09 09:59:37;;;;;;;10.15;6.85;;;;;;;;;;4900685;29;20044;-89
2022/10/09 10:02:21;;;;;;;10.05;8.30;;;;;;;;;;4900040;29;20060;-88
2022/10/09 10:04:52;;;;;;;14.18;6.75;;;;;;;;;;4899982;29;20036;-89
2022/10/09 10:07:33;;;;;;;7.82;5.25;;;;;;;;;;4900534;29;20032;-89
2022/10/09 10:10:21;;;;;;;9.15;5.47;;;;;;;;;;4901860;29;20087;-90
2022/10/09 10:12:50;;;;;;;10.07;6.65;;;;;;;;;;4900238;29;20386;-89
2022/10/09 10:15:27;;;;;;;12.27;9.00;;;;;;;;;;4898349;29;20067;-88
2022/10/09 10:18:17;;;;;;;13.82;9.73;;;;;;;;;;4898634;29;20032;-88
2022/10/09 10:21:01;;;;;;;11.43;7.63;;;;;;;;;;4897906;29;20421;-88
2022/10/09 10:23:51;;;;;;;10.32;7.03;;;;;;;;;;4900407;29;20063;-88
2022/10/09 10:26:34;;;;;;;20.80;12.27;;;;;;;;;;4898582;29;20060;-88
2022/10/09 10:29:04;;;;;;;8.02;5.47;;;;;;;;;;4899195;29;20063;-89
2022/10/09 10:31:42;;;;;;;12.63;8.18;;;;;;;;;;4913890;29;20036;-89
2022/10/09 10:34:20;;;;;;;13.35;9.75;;;;;;;;;;4898913;29;20040;-88
2022/10/09 10:36:47;;;;;;;9.02;5.28;;;;;;;;;;4898012;29;20531;-89
2022/10/09 10:39:25;;;;;;;7.10;5.05;;;;;;;;;;4897876;29;20504;-89
2022/10/09 10:41:56;;;;;;;8.07;5.35;;;;;;;;;;4913660;29;20409;-89
2022/10/09 10:44:30;;;;;;;8.45;5.30;;;;;;;;;;4898588;29;20043;-88
2022/10/09 10:47:05;;;;;;;8.15;5.00;;;;;;;;;;4897441;29;20040;-89
2022/10/09 10:49:31;;;;;;;7.68;4.68;;;;;;;;;;4913178;29;20478;-89
2022/10/09 10:51:59;;;;;;;8.70;4.63;;;;;;;;;;4898966;29;20061;-88
2022/10/09 10:54:34;;;;;;;7.72;5.03;;;;;;;;;;4898285;29;20466;-89
2022/10/09 10:57:33;;;;;;;8.77;4.55;;;;;;;;;;4881845;29;20036;-88
2022/10/09 11:00:10;;;;;;;7.88;4.82;;;;;;;;;;4898111;29;20056;-89
2022/10/09 11:02:35;;;;;;;6.53;4.70;;;;;;;;;;4898451;29;20500;-89
2022/10/09 11:05:17;;;;;;;9.43;4.20;;;;;;;;;;4898296;29;20043;-88
2022/10/09 11:08:00;;;;;;;6.53;4.65;;;;;;;;;;4898414;29;20040;-89
2022/10/09 11:10:26;;;;;;;8.40;4.30;;;;;;;;;;4896982;29;20036;-88
2022/10/09 11:12:55;;;;;;;6.95;4.10;;;;;;;;;;4897945;29;20421;-88
2022/10/09 11:15:36;;;;;;;7.78;4.32;;;;;;;;;;4896278;29;20049;-89
2022/10/09 11:18:10;;;;;;;7.63;3.85;;;;;;;;;;4897761;29;20048;-89
2022/10/09 11:20:59;;;;;;;7.35;4.03;;;;;;;;;;4912138;29;20527;-89
2022/10/09 11:23:45;;;;;;;9.10;4.13;;;;;;;;;;4896418;29;20037;-89
2022/10/09 11:26:10;;;;;;;5.97;3.80;;;;;;;;;;4886612;29;20051;-89
2022/10/09 11:28:48;;;;;;;7.75;3.65;;;;;;;;;;4900633;29;20029;-89
2022/10/09 11:31:19;;;;;;;6.25;3.65;;;;;;;;;;4902973;29;20036;-88
2022/10/09 11:33:59;;;;;;;5.90;3.42;;;;;;;;;;4899779;29;20041;-88
2022/10/09 11:36:40;;;;;;;6.70;3.58;;;;;;;;;;4914277;29;20394;-89
2022/10/09 11:39:27;;;;;;;6.15;3.85;;;;;;;;;;4902540;29;20063;-89
2022/10/09 11:41:53;;;;;;;4.20;3.40;;;;;;;;;;4899032;29;20050;-88
2022/10/09 11:44:53;;;;;;;5.35;3.60;;;;;;;;;;4900008;29;20043;-89
2022/10/09 11:47:40;;;;;;;6.43;3.42;;;;;;;;;;4899314;29;20096;-88
2022/10/09 11:50:21;;;;;;;8.57;4.00;;;;;;;;;;4898455;29;20123;-89
2022/10/09 11:53:06;;;;;;;8.00;3.83;;;;;;;;;;4898871;29;20040;-89
2022/10/09 11:55:33;;;;;;;5.30;3.50;;;;;;;;;;4899567;29;20512;-89
2022/10/09 11:58:17;;;;;;;6.15;3.28;;;;;;;;;;4898071;29;20036;-88
2022/10/09 12:00:45;;;;;;;8.57;4.00;;;;;;;;;;4900780;29;20040;-88
2022/10/09 12:03:32;;;;;;;8.40;4.00;;;;;;;;;;4901081;29;20028;-88
2022/10/09 12:06:13;;;;;;;5.60;3.42;;;;;;;;;;4899607;29;20037;-88
2022/10/09 12:08:53;;;;;;;5.85;3.47;;;;;;;;;;4898924;29;20048;-89
2022/10/09 12:11:19;;;;;;;7.47;3.72;;;;;;;;;;4898517;29;20036;-88
2022/10/09 12:13:49;;;;;;;5.63;3.45;;;;;;;;;;4912614;29;20497;-89
2022/10/09 12:16:37;;;;;;;6.93;3.60;;;;;;;;;;4898647;29;20144;-89
2022/10/09 12:19:22;;;;;;;6.25;3.40;;;;;;;;;;4912709;29;20040;-88
2022/10/09 12:22:13;;;;;;;9.02;3.70;;;;;;;;;;4912288;29;20116;-88
2022/10/09 12:24:43;;;;;;;6.93;3.67;;;;;;;;;;4896728;29;20044;-89
2022/10/09 12:27:19;;;;;;;5.28;3.38;;;;;;;;;;4898948;29;20037;-89
2022/10/09 12:29:50;;;;;;;6.78;3.45;;;;;;;;;;4897551;29;20045;-89
2022/10/09 12:32:25;;;;;;;4.78;3.15;;;;;;;;;;4913005;29;20048;-88
2022/10/09 12:34:52;;;;;;;6.15;3.50;;;;;;;;;;4897405;29;20127;-88
2022/10/09 12:37:32;;;;;;;6.72;3.40;;;;;;;;;;4897965;29;20056;-88
2022/10/09 12:40:16;;;;;;;6.90;3.47;;;;;;;;;;4897633;29;20453;-90
2022/10/09 12:42:43;;;;;;;4.68;3.08;;;;;;;;;;4911273;29;20028;-90
2022/10/09 12:45:21;;;;;;;5.65;3.47;;;;;;;;;;4897057;29;20049;-89
2022/10/09 12:47:47;;;;;;;5.53;3.60;;;;;;;;;;4896993;29;20167;-89
2022/10/09 12:50:16;;;;;;;7.50;3.42;;;;;;;;;;4900002;29;20508;-89
2022/10/09 12:52:53;;;;;;;4.43;3.15;;;;;;;;;;4900413;29;20032;-89
2022/10/09 12:55:27;;;;;;;7.38;3.45;;;;;;;;;;4900250;29;20076;-88
2022/10/09 12:57:56;;;;;;;8.00;4.10;;;;;;;;;;4900532;29;20036;-89
2022/10/09 13:00:22;;;;;;;6.43;3.63;;;;;;;;;;4914985;29;20036;-89
2022/10/09 13:02:47;;;;;;;8.30;4.10;;;;;;;;;;4899224;29;20076;-90
2022/10/09 13:05:13;;;;;;;6.38;4.10;;;;;;;;;;4898694;29;20103;-89
2022/10/09 13:07:38;;;;;;;8.38;4.28;;;;;;;;;;4914763;29;20068;-88
2022/10/09 13:10:14;;;;;;;6.10;3.88;;;;;;;;;;4900157;29;20051;-88
2022/10/09 13:12:49;;;;;;;7.97;4.47;;;;;;;;;;4901184;29;20121;-89
2022/10/09 13:15:34;;;;;;;8.23;4.18;;;;;;;;;;4900157;29;20100;-89
2022/10/09 13:18:11;;;;;;;8.07;4.53;;;;;;;;;;4914506;29;20485;-89
2022/10/09 13:20:37;;;;;;;12.02;4.50;;;;;;;;;;4883261;29;20065;-88
2022/10/09 13:23:04;;;;;;;9.27;3.90;;;;;;;;;;4900221;29;20037;-89
2022/10/09 13:25:39;;;;;;;5.35;3.80;;;;;;;;;;4899939;29;20549;-89
2022/10/09 13:28:05;;;;;;;6.60;4.05;;;;;;;;;;4899938;29;20085;-89
2022/10/09 13:30:30;;;;;;;5.22;3.72;;;;;;;;;;4900404;29;20048;-89
2022/10/09 13:32:56;;;;;;;6.50;3.90;;;;;;;;;;4900385;29;20039;-89
2022/10/09 13:35:22;;;;;;;9.32;4.00;;;;;;;;;;4899757;29;20093;-89
2022/10/09 13:37:48;;;;;;;8.55;3.95;;;;;;;;;;4898482;29;20033;-89
2022/10/09 13:40:17;;;;;;;6.75;3.78;;;;;;;;;;4900096;29;20557;-89
2022/10/09 13:42:49;;;;;;;10.68;4.80;;;;;;;;;;4900510;29;20039;-91
2022/10/09 13:45:14;;;;;;;6.05;3.75;;;;;;;;;;4898757;29;20092;-90
2022/10/09 13:47:40;;;;;;;5.95;3.78;;;;;;;;;;4900616;29;20127;-89
2022/10/09 13:50:05;;;;;;;6.75;4.07;;;;;;;;;;4900525;29;20052;-89
2022/10/09 13:52:31;;;;;;;9.00;4.43;;;;;;;;;;4900050;29;20044;-89
2022/10/09 13:54:56;;;;;;;9.48;4.80;;;;;;;;;;4900004;29;20092;-90
2022/10/09 13:57:22;;;;;;;7.03;4.53;;;;;;;;;;4899900;29;20048;-89
2022/10/09 13:59:47;;;;;;;8.48;4.40;;;;;;;;;;4898200;29;20048;-89
2022/10/09 14:02:13;;;;;;;7.32;4.10;;;;;;;;;;4898585;29;20043;-90
2022/10/09 14:04:38;;;;;;;9.30;4.70;;;;;;;;;;4901483;29;20624;-89
2022/10/09 14:07:04;;;;;;;7.35;4.25;;;;;;;;;;4899730;29;20072;-89
2022/10/09 14:09:30;;;;;;;10.65;4.05;;;;;;;;;;4899146;29;20036;-89
2022/10/09 14:11:55;;;;;;;13.50;3.95;;;;;;;;;;4898847;29;20513;-89
2022/10/09 14:14:21;;;;;;;7.47;4.00;;;;;;;;;;4899540;29;20640;-89
2022/10/09 14:16:46;;;;;;;6.80;4.20;;;;;;;;;;4899662;29;20051;-89
2022/10/09 14:19:12;;;;;;;9.75;4.28;;;;;;;;;;4899327;29;20032;-88
2022/10/09 14:21:37;;;;;;;7.75;3.95;;;;;;;;;;4903084;29;20032;-89
2022/10/09 14:24:03;;;;;;;6.13;3.90;;;;;;;;;;4899935;29;20048;-89
2022/10/09 14:26:29;;;;;;;5.85;3.95;;;;;;;;;;4899734;29;20496;-89
2022/10/09 14:28:58;;;;;;;8.63;4.05;;;;;;;;;;4898915;29;20036;-89
2022/10/09 14:31:24;;;;;;;7.88;3.97;;;;;;;;;;4899182;29;20052;-88
2022/10/09 14:33:55;;;;;;;9.05;4.45;;;;;;;;;;4897908;29;20529;-89
2022/10/09 14:36:20;;;;;;;10.80;4.50;;;;;;;;;;4897604;29;20048;-88
2022/10/09 14:38:47;;;;;;;9.32;4.10;;;;;;;;;;4898856;29;20043;-89
2022/10/09 14:41:13;;;;;;;7.07;4.00;;;;;;;;;;4897050;29;20032;-89
2022/10/09 14:43:39;;;;;;;7.47;4.53;;;;;;;;;;4897954;29;20036;-90
2022/10/09 14:46:07;;;;;;;9.05;4.85;;;;;;;;;;4891356;29;20585;-89
2022/10/09 14:48:34;;;;;;;10.80;4.30;;;;;;;;;;4897502;29;20059;-91
2022/10/09 14:51:13;;;;;;;6.07;3.85;;;;;;;;;;4897523;29;20474;-90
2022/10/09 14:53:38;;;;;;;7.82;4.03;;;;;;;;;;4880867;29;20127;-90